Time;durP1;ratioP1;P1;durP2;ratioP2;P2;SDS_P1;SDS_P2;PMS_P1;PMS_P2;Temp;Humidity;BMP_temperature;BMP_pressure;BME280_temperature;BME280_humidity;BME280_pressure;Samples;Min_cycle;Max_cycle;Signal;HPM_P1;HPM_P2
2022/06/12 00:01:09;;;;;;;7.93;1.30;;;;;;;13.57;100.00;101569.25;5089981;28;20414;-84
2022/06/12 00:03:39;;;;;;;5.40;1.48;;;;;;;13.56;100.00;101567.63;5079843;28;20425;-84
2022/06/12 00:06:08;;;;;;;6.22;1.40;;;;;;;13.61;100.00;101573.06;5087576;28;20476;-84
2022/06/12 00:08:42;;;;;;;7.22;1.70;;;;;;;13.60;100.00;101564.06;5085220;28;20421;-84
2022/06/12 00:11:17;;;;;;;4.82;1.35;;;;;;;13.63;100.00;101565.44;5090597;28;20421;-83
2022/06/12 00:13:56;;;;;;;6.53;1.50;;;;;;;13.56;100.00;101565.72;5087658;28;20917;-85
2022/06/12 00:16:34;;;;;;;5.70;1.48;;;;;;;13.50;100.00;101571.47;5088928;28;20410;-84
2022/06/12 00:19:09;;;;;;;6.93;1.40;;;;;;;13.48;100.00;101570.91;5081347;28;20430;-84
2022/06/12 00:21:42;;;;;;;6.18;1.40;;;;;;;13.46;100.00;101567.66;5098356;28;20431;-84
2022/06/12 00:24:17;;;;;;;5.80;1.40;;;;;;;13.40;100.00;101573.13;5089962;28;20779;-84
2022/06/12 00:26:49;;;;;;;5.82;1.50;;;;;;;13.20;100.00;101573.97;5086897;28;20417;-84
2022/06/12 00:29:26;;;;;;;5.38;1.42;;;;;;;13.23;100.00;101592.56;5099243;28;20404;-84
2022/06/12 00:32:02;;;;;;;4.38;1.25;;;;;;;13.16;100.00;101588.44;5078324;28;20485;-84
2022/06/12 00:34:38;;;;;;;6.60;1.58;;;;;;;13.14;100.00;101579.72;5086452;28;20419;-84
2022/06/12 00:37:12;;;;;;;4.32;1.45;;;;;;;13.15;100.00;101578.63;5087403;28;20924;-84
2022/06/12 00:39:47;;;;;;;6.65;1.95;;;;;;;13.18;100.00;101581.63;5088860;28;20413;-84
2022/06/12 00:42:24;;;;;;;5.97;1.27;;;;;;;13.24;100.00;101579.69;5103830;28;20425;-84
2022/06/12 00:45:00;;;;;;;4.97;1.40;;;;;;;13.37;100.00;101576.41;5085159;28;20430;-83
2022/06/12 00:47:35;;;;;;;5.68;1.38;;;;;;;13.37;100.00;101576.41;5082268;28;20432;-83
2022/06/12 00:50:06;;;;;;;4.35;1.30;;;;;;;13.32;100.00;101573.66;5088075;28;20422;-84
2022/06/12 00:52:44;;;;;;;5.07;1.40;;;;;;;13.27;100.00;101569.03;5087111;28;20488;-85
2022/06/12 00:55:24;;;;;;;4.82;1.20;;;;;;;13.17;100.00;101569.03;5086862;28;20438;-84
2022/06/12 00:58:05;;;;;;;5.07;1.33;;;;;;;13.05;100.00;101565.78;5086744;28;20430;-84
2022/06/12 01:00:40;;;;;;;6.65;1.52;;;;;;;12.95;100.00;101580.25;5080197;28;20922;-84
2022/06/12 01:03:15;;;;;;;5.53;1.33;;;;;;;12.88;100.00;101575.06;5087206;28;20428;-84
2022/06/12 01:08:40;;;;;;;4.97;1.20;;;;;;;12.93;100.00;101561.41;5084121;28;20414;-83
2022/06/12 01:11:15;;;;;;;5.72;1.60;;;;;;;12.96;100.00;101557.31;5090165;28;20906;-84
2022/06/12 01:13:48;;;;;;;6.68;1.63;;;;;;;12.99;100.00;101561.41;5084180;28;20418;-83
2022/06/12 01:16:22;;;;;;;4.97;1.60;;;;;;;13.02;100.00;101561.69;5092315;28;20774;-84
2022/06/12 01:18:57;;;;;;;5.35;1.42;;;;;;;13.02;100.00;101561.69;5085125;28;20429;-83
2022/06/12 01:21:51;;;;;;;4.07;1.20;;;;;;;12.98;100.00;101562.50;5090935;28;20423;-84
2022/06/12 01:24:47;;;;;;;8.07;1.48;;;;;;;12.92;100.00;101557.03;5085727;28;20634;-84
2022/06/12 01:27:41;;;;;;;5.88;1.40;;;;;;;12.86;100.00;101543.69;5095284;28;20886;-84
2022/06/12 01:30:19;;;;;;;5.05;1.27;;;;;;;12.94;100.00;101551.31;5090387;28;20429;-83
2022/06/12 01:32:59;;;;;;;6.28;1.30;;;;;;;13.02;100.00;101553.50;5088411;28;20422;-84
2022/06/12 01:35:40;;;;;;;4.97;1.50;;;;;;;13.09;100.00;101564.13;5088790;28;20420;-83
2022/06/12 01:38:20;;;;;;;6.47;1.43;;;;;;;13.14;100.00;101557.84;5084527;28;20912;-83
2022/06/12 01:41:01;;;;;;;4.47;1.20;;;;;;;13.17;100.00;101549.91;5086776;28;20448;-84
2022/06/12 01:43:43;;;;;;;7.57;1.60;;;;;;;13.10;100.00;101550.22;5091283;28;20416;-84
2022/06/12 01:46:20;;;;;;;5.13;1.30;;;;;;;13.03;100.00;101548.84;5088380;28;20906;-84
2022/06/12 01:49:05;;;;;;;7.28;1.50;;;;;;;12.93;100.00;101542.28;5088877;28;20430;-83
2022/06/12 01:51:45;;;;;;;4.95;1.30;;;;;;;12.87;100.00;101551.59;5087743;28;20450;-83
2022/06/12 01:54:23;;;;;;;4.05;1.23;;;;;;;12.78;100.00;101536.84;5088424;28;20418;-84
2022/06/12 01:57:03;;;;;;;6.05;1.33;;;;;;;12.74;100.00;101544.75;5091506;28;20420;-83
2022/06/12 01:59:38;;;;;;;6.17;1.40;;;;;;;12.73;100.00;101545.84;5086303;28;20403;-83
2022/06/12 02:02:18;;;;;;;4.78;1.30;;;;;;;12.64;100.00;101539.28;5090502;28;20432;-84
2022/06/12 02:04:55;;;;;;;5.20;1.50;;;;;;;12.64;100.00;101539.28;5087728;28;20406;-84
2022/06/12 02:07:33;;;;;;;5.93;1.25;;;;;;;12.62;100.00;101537.94;5090027;28;20938;-84
2022/06/12 02:10:11;;;;;;;5.13;1.40;;;;;;;12.63;100.00;101539.56;5085947;28;20422;-84
2022/06/12 02:15:51;;;;;;;7.47;1.40;;;;;;;12.56;100.00;101532.47;5079683;28;20891;-83
2022/06/12 02:18:31;;;;;;;4.35;1.30;;;;;;;12.48;100.00;101537.66;5089729;28;20429;-83
2022/06/12 02:21:11;;;;;;;5.13;1.50;;;;;;;12.32;100.00;101523.97;5086915;28;20508;-84
2022/06/12 02:23:49;;;;;;;3.40;1.13;;;;;;;12.37;100.00;101523.16;5087720;28;20772;-83
2022/06/12 02:26:27;;;;;;;4.78;1.23;;;;;;;12.41;100.00;101530.56;5077727;28;20915;-83
2022/06/12 02:29:06;;;;;;;4.97;1.17;;;;;;;12.37;100.00;101529.47;5082693;28;20432;-83
2022/06/12 02:31:44;;;;;;;4.30;1.23;;;;;;;12.41;100.00;101527.00;5080599;28;20508;-83
2022/06/12 02:34:25;;;;;;;4.75;1.30;;;;;;;12.29;100.00;101512.78;5089102;28;20500;-83
2022/06/12 02:37:02;;;;;;;4.00;1.23;;;;;;;12.41;100.00;101530.56;5086002;28;20789;-83
2022/06/12 02:39:35;;;;;;;4.82;1.20;;;;;;;12.38;100.00;101519.34;5083294;28;20866;-83
2022/06/12 02:42:13;;;;;;;4.63;1.10;;;;;;;12.42;100.00;101528.63;5082060;28;21146;-83
2022/06/12 02:44:52;;;;;;;3.63;0.98;;;;;;;12.40;100.00;101534.38;5080239;28;20437;-83
2022/06/12 02:47:27;;;;;;;6.20;1.10;;;;;;;12.37;100.00;101539.53;5095682;28;20921;-85
2022/06/12 02:50:04;;;;;;;6.53;1.50;;;;;;;12.33;100.00;101524.78;5088103;28;20441;-83
2022/06/12 02:52:44;;;;;;;5.22;1.30;;;;;;;12.33;100.00;101522.91;5092774;28;20416;-83
2022/06/12 02:55:26;;;;;;;5.63;1.55;;;;;;;12.24;100.00;101514.41;5088825;28;20398;-83
2022/06/12 02:58:11;;;;;;;4.40;1.10;;;;;;;12.23;100.00;101520.94;5085022;28;20436;-84
2022/06/12 03:00:52;;;;;;;3.35;1.00;;;;;;;12.22;100.00;101516.59;5088764;28;20419;-83
2022/06/12 03:03:30;;;;;;;5.90;1.50;;;;;;;12.27;100.00;101517.69;5089313;28;20918;-83
2022/06/12 03:06:05;;;;;;;3.05;1.10;;;;;;;12.16;100.00;101514.13;5087236;28;20425;-83
2022/06/12 03:08:37;;;;;;;5.45;1.20;;;;;;;12.14;100.00;101522.59;5093235;28;20421;-83
2022/06/12 03:11:15;;;;;;;4.43;1.20;;;;;;;12.16;100.00;101514.13;5094408;28;20465;-84
2022/06/12 03:13:51;;;;;;;4.32;1.20;;;;;;;12.13;100.00;101514.69;5095849;28;20452;-84
2022/06/12 03:16:27;;;;;;;3.47;1.05;;;;;;;11.91;100.00;101521.94;5090332;28;20410;-83
2022/06/12 03:19:04;;;;;;;4.47;1.35;;;;;;;12.00;100.00;101516.00;5070796;28;20506;-83
2022/06/12 03:21:44;;;;;;;4.53;0.93;;;;;;;12.03;100.00;101513.56;5081985;28;20470;-83
2022/06/12 03:24:29;;;;;;;3.97;1.17;;;;;;;12.02;100.00;101522.81;5091893;28;20786;-84
2022/06/12 03:27:18;;;;;;;4.20;1.20;;;;;;;11.98;100.00;101521.72;5089517;28;20418;-83
2022/06/12 03:30:01;;;;;;;4.82;1.17;;;;;;;11.88;100.00;101521.66;5077117;28;20423;-84
2022/06/12 03:32:43;;;;;;;4.30;1.25;;;;;;;11.94;100.00;101525.22;5081086;28;20429;-83
2022/06/12 03:35:27;;;;;;;5.18;1.27;;;;;;;11.95;100.00;101524.19;5087755;28;20761;-84
2022/06/12 03:38:07;;;;;;;4.85;1.30;;;;;;;11.87;100.00;101525.47;5083305;28;20425;-83
2022/06/12 03:40:49;;;;;;;2.97;1.00;;;;;;;11.94;100.00;101517.88;5079072;28;20418;-83
2022/06/12 03:43:30;;;;;;;6.27;1.30;;;;;;;12.01;100.00;101517.63;5084301;28;20414;-84
2022/06/12 03:46:14;;;;;;;4.53;1.27;;;;;;;11.90;100.00;101520.31;5091625;28;20426;-83
2022/06/12 03:48:47;;;;;;;3.90;1.10;;;;;;;12.03;100.00;101520.94;5079998;28;20425;-83
2022/06/12 03:51:24;;;;;;;4.28;1.10;;;;;;;12.07;100.00;101522.84;5100890;27;20425;-83
2022/06/12 03:54:02;;;;;;;5.68;1.60;;;;;;;12.06;100.00;101517.66;5075260;28;20429;-83
2022/06/12 03:59:35;;;;;;;5.00;1.25;;;;;;;12.20;100.00;101517.97;5087588;28;20909;-83
2022/06/12 04:02:07;;;;;;;6.60;1.23;;;;;;;12.33;100.00;101522.06;5080572;28;20432;-83
2022/06/12 04:04:40;;;;;;;4.60;1.17;;;;;;;12.44;100.00;101520.97;5085504;28;20432;-83
2022/06/12 04:07:17;;;;;;;6.87;1.23;;;;;;;12.50;100.00;101510.91;5081062;28;20422;-83
2022/06/12 04:09:56;;;;;;;4.97;1.10;;;;;;;12.57;100.00;101520.44;5084330;28;20434;-83
2022/06/12 04:12:33;;;;;;;3.42;1.20;;;;;;;12.65;100.00;101521.81;5084609;28;20413;-83
2022/06/12 04:15:12;;;;;;;5.03;1.13;;;;;;;12.75;100.00;101519.06;5091416;28;20425;-82
2022/06/12 04:17:46;;;;;;;4.18;1.10;;;;;;;12.84;100.00;101513.06;5087182;28;20428;-82
2022/06/12 04:20:23;;;;;;;4.28;1.20;;;;;;;12.95;100.00;101528.34;5089853;28;20755;-82
2022/06/12 04:23:02;;;;;;;5.05;1.20;;;;;;;13.01;100.00;101518.22;5096440;28;20422;-82
2022/06/12 04:25:42;;;;;;;6.63;1.20;;;;;;;13.08;100.00;101525.06;5088328;28;20835;-82
2022/06/12 04:28:28;;;;;;;4.47;1.10;;;;;;;13.18;100.00;101528.88;5086518;28;20902;-82
2022/06/12 04:31:04;;;;;;;4.03;1.13;;;;;;;13.27;100.00;101525.28;5093863;28;20480;-82
2022/06/12 04:33:51;;;;;;;4.78;1.25;;;;;;;13.38;100.00;101533.50;5082592;28;20434;-82
2022/06/12 04:36:19;;;;;;;5.30;1.30;;;;;;;13.52;100.00;101525.50;5086263;28;20478;-82
2022/06/12 04:38:53;;;;;;;3.60;1.25;;;;;;;13.64;100.00;101525.22;5089404;28;20433;-82
2022/06/12 04:41:30;;;;;;;4.10;1.10;;;;;;;13.74;100.00;101512.31;5086390;28;20497;-82
2022/06/12 04:44:04;;;;;;;6.05;1.20;;;;;;;13.93;100.00;101507.03;5092329;28;20414;-81
2022/06/12 04:46:35;;;;;;;3.90;1.10;;;;;;;14.03;100.00;101519.00;5078540;28;20794;-81
2022/06/12 04:49:11;;;;;;;5.27;1.20;;;;;;;14.10;100.00;101514.84;5090408;28;20925;-82
2022/06/12 04:51:45;;;;;;;4.18;1.10;;;;;;;14.21;100.00;101510.13;5089528;28;20424;-82
2022/06/12 04:54:19;;;;;;;4.65;1.10;;;;;;;14.34;100.00;101507.84;5089881;28;20418;-82
2022/06/12 04:56:54;;;;;;;5.00;1.25;;;;;;;14.43;100.00;101512.44;5089302;28;20425;-81
2022/06/12 04:59:28;;;;;;;7.38;1.38;;;;;;;14.49;100.00;101507.72;5089894;28;20429;-82
2022/06/12 05:02:02;;;;;;;4.65;1.20;;;;;;;14.53;100.00;101506.06;5093081;28;20413;-82
2022/06/12 05:04:36;;;;;;;4.67;1.23;;;;;;;14.62;100.00;101498.91;5090883;28;20480;-82
2022/06/12 05:07:07;;;;;;;5.45;1.20;;;;;;;15.04;100.00;101495.75;5092030;28;20711;-82
2022/06/12 05:09:41;;;;;;;7.47;1.40;;;;;;;16.50;100.00;101491.63;5092854;28;20492;-82
2022/06/12 05:12:13;;;;;;;4.80;1.23;;;;;;;18.55;100.00;101477.53;5092714;28;20405;-82
2022/06/12 05:14:42;;;;;;;5.35;1.10;;;;;;;19.67;100.00;101481.09;5092547;28;20405;-82
2022/06/12 05:17:13;;;;;;;3.45;1.02;;;;;;;20.90;100.00;101469.97;5092528;28;20406;-82
2022/06/12 05:19:46;;;;;;;3.75;1.25;;;;;;;22.01;93.14;101454.19;5090677;28;20413;-82
2022/06/12 05:22:15;;;;;;;3.42;1.05;;;;;;;22.83;67.29;101463.00;5092564;28;20769;-81
2022/06/12 05:24:44;;;;;;;4.70;1.10;;;;;;;23.72;76.29;101465.06;5090816;28;20417;-82
2022/06/12 05:27:19;;;;;;;5.13;1.20;;;;;;;22.87;55.20;101458.38;5092260;28;20410;-81
2022/06/12 05:29:53;;;;;;;5.07;1.13;;;;;;;23.61;60.84;101461.16;5090355;28;20421;-83
2022/06/12 05:32:23;;;;;;;6.15;1.30;;;;;;;24.35;55.18;101451.81;5081699;28;20414;-82
2022/06/12 05:34:56;;;;;;;4.50;1.15;;;;;;;23.84;65.56;101455.91;5090553;28;20445;-82
2022/06/12 05:37:29;;;;;;;4.18;1.10;;;;;;;23.84;62.59;101449.53;5091990;28;20422;-82
2022/06/12 05:40:03;;;;;;;4.03;1.10;;;;;;;24.00;58.39;101441.28;5092015;28;20421;-81
2022/06/12 05:42:38;;;;;;;5.05;1.23;;;;;;;23.88;60.77;101444.94;5089345;28;20425;-81
2022/06/12 05:45:08;;;;;;;5.28;1.08;;;;;;;23.01;62.30;101456.09;5094082;28;20885;-82
2022/06/12 05:47:45;;;;;;;4.75;1.10;;;;;;;22.08;76.85;101453.63;5090421;28;20766;-82
2022/06/12 05:50:14;;;;;;;4.72;1.00;;;;;;;21.61;79.31;101456.63;5089345;28;20504;-82
2022/06/12 05:52:43;;;;;;;4.22;1.17;;;;;;;21.01;75.84;101462.94;5089311;28;20417;-82
2022/06/12 05:55:17;;;;;;;5.28;1.13;;;;;;;21.05;73.98;101461.13;5089769;28;20414;-82
2022/06/12 05:57:51;;;;;;;4.93;1.00;;;;;;;20.67;77.27;101459.13;5089911;28;20445;-82
2022/06/12 06:00:29;;;;;;;3.90;1.10;;;;;;;20.20;77.80;101467.31;5091252;28;20432;-81
2022/06/12 06:03:02;;;;;;;5.63;1.20;;;;;;;20.24;83.53;101470.25;5090405;28;20912;-81
2022/06/12 06:05:37;;;;;;;6.22;1.33;;;;;;;19.82;92.28;101459.72;5077280;28;20417;-82
2022/06/12 06:08:06;;;;;;;4.50;1.10;;;;;;;19.73;89.11;101456.88;5085101;28;20412;-82
2022/06/12 06:10:40;;;;;;;4.72;1.23;;;;;;;19.60;82.04;101455.09;5069372;28;20408;-81
2022/06/12 06:13:16;;;;;;;4.95;1.13;;;;;;;19.28;76.55;101457.13;5070057;28;20420;-81
2022/06/12 06:15:50;;;;;;;5.00;1.10;;;;;;;19.14;81.71;101455.31;5069833;28;20430;-81
2022/06/12 06:18:23;;;;;;;4.80;1.00;;;;;;;19.13;83.37;101461.97;5072051;28;20427;-81
2022/06/12 06:20:51;;;;;;;5.90;1.40;;;;;;;19.28;96.25;101460.72;5081033;28;20429;-80
2022/06/12 06:23:24;;;;;;;3.63;1.00;;;;;;;19.28;90.93;101463.47;5085488;28;20426;-81
2022/06/12 06:25:52;;;;;;;5.78;1.42;;;;;;;19.31;90.29;101465.59;5096656;28;20406;-82
2022/06/12 06:28:27;;;;;;;8.40;1.70;;;;;;;19.09;87.92;101469.25;5093353;28;20418;-82
2022/06/12 06:31:00;;;;;;;5.07;1.10;;;;;;;19.18;89.36;101477.53;5105651;27;20424;-81
2022/06/12 06:33:34;;;;;;;5.28;1.30;;;;;;;19.12;95.03;101467.78;5091325;28;20416;-81
2022/06/12 06:36:08;;;;;;;6.30;1.50;;;;;;;19.31;100.00;101467.53;5095153;28;20410;-81
2022/06/12 06:38:42;;;;;;;6.53;1.50;;;;;;;19.30;100.00;101469.47;5095826;28;20420;-81
2022/06/12 06:41:15;;;;;;;7.55;1.30;;;;;;;19.06;100.00;101469.06;5097306;28;20429;-81
2022/06/12 06:46:41;;;;;;;5.05;1.40;;;;;;;18.99;100.00;101461.25;5089557;28;20428;-81
2022/06/12 06:49:14;;;;;;;5.93;1.48;;;;;;;18.96;100.00;101464.63;5091605;28;20898;-81
2022/06/12 06:51:49;;;;;;;6.75;1.40;;;;;;;18.89;100.00;101456.81;5104225;28;20415;-80
2022/06/12 06:54:22;;;;;;;6.68;1.33;;;;;;;18.95;100.00;101452.81;5095634;28;21105;-81
2022/06/12 06:56:51;;;;;;;5.07;1.38;;;;;;;18.97;100.00;101453.28;5104838;28;20414;-82
2022/06/12 06:59:20;;;;;;;5.20;1.33;;;;;;;18.70;100.00;101457.84;5099895;28;20417;-82
2022/06/12 07:01:53;;;;;;;6.10;1.38;;;;;;;18.99;100.00;101455.75;5099719;28;20441;-81
2022/06/12 07:04:22;;;;;;;6.22;1.60;;;;;;;19.08;100.00;101447.50;5100551;28;20420;-82
2022/06/12 07:06:55;;;;;;;7.55;1.55;;;;;;;18.95;100.00;101447.28;5089554;28;20427;-82
2022/06/12 07:09:28;;;;;;;8.43;1.60;;;;;;;19.09;100.00;101449.13;5098488;28;20429;-81
2022/06/12 07:12:01;;;;;;;7.20;1.48;;;;;;;19.16;100.00;101450.28;5096931;28;20404;-83
2022/06/12 07:14:31;;;;;;;6.57;1.50;;;;;;;19.35;100.00;101438.16;5093643;28;20413;-80
2022/06/12 07:17:05;;;;;;;6.55;1.60;;;;;;;19.30;99.39;101444.63;5089833;28;20402;-82
2022/06/12 07:19:38;;;;;;;5.73;1.40;;;;;;;19.26;100.00;101432.59;5090919;28;21075;-82
2022/06/12 07:22:07;;;;;;;4.75;1.45;;;;;;;19.35;97.49;101444.50;5095441;28;20429;-81
2022/06/12 07:24:40;;;;;;;6.93;1.70;;;;;;;19.41;100.00;101436.06;5096722;28;20412;-81
2022/06/12 07:27:14;;;;;;;6.65;1.42;;;;;;;19.35;98.32;101432.66;5092119;28;20418;-80
2022/06/12 07:29:48;;;;;;;7.45;1.60;;;;;;;19.31;97.60;101450.97;5094272;28;20784;-82
2022/06/12 07:32:16;;;;;;;6.53;1.40;;;;;;;19.34;100.00;101439.28;5088879;28;20406;-81
2022/06/12 07:34:50;;;;;;;7.50;1.53;;;;;;;19.53;100.00;101439.00;5090591;28;20414;-82
2022/06/12 07:37:18;;;;;;;6.03;1.40;;;;;;;19.57;100.00;101431.72;5093807;28;20746;-82
2022/06/12 07:39:47;;;;;;;8.75;1.90;;;;;;;19.67;100.00;101434.16;5098601;28;20412;-82
2022/06/12 07:42:16;;;;;;;7.25;1.80;;;;;;;19.79;100.00;101427.16;5095083;28;20418;-82
2022/06/12 07:44:50;;;;;;;5.15;1.40;;;;;;;19.85;100.00;101431.44;5083834;28;20417;-81
2022/06/12 07:47:24;;;;;;;7.07;1.65;;;;;;;20.01;100.00;101440.03;5091759;28;20945;-81
2022/06/12 07:49:57;;;;;;;5.00;1.20;;;;;;;19.86;89.80;101433.88;5095608;28;20404;-83
2022/06/12 07:52:31;;;;;;;7.03;1.45;;;;;;;19.61;100.00;101429.94;5094196;28;20416;-81
2022/06/12 07:55:06;;;;;;;5.95;1.52;;;;;;;19.83;98.26;101444.75;5082553;28;20794;-81
2022/06/12 07:57:40;;;;;;;5.95;1.30;;;;;;;19.52;83.11;101429.91;5086365;28;20423;-80
2022/06/12 08:00:13;;;;;;;5.55;1.30;;;;;;;19.51;84.31;101436.56;5091055;28;20814;-84
2022/06/12 08:02:48;;;;;;;4.33;1.20;;;;;;;19.48;90.12;101439.97;5085855;28;20418;-80
2022/06/12 08:05:22;;;;;;;6.55;1.52;;;;;;;19.59;90.55;101446.00;5086462;28;20429;-82
2022/06/12 08:07:55;;;;;;;4.90;1.50;;;;;;;19.78;93.25;101426.38;5090074;28;22088;-85
2022/06/12 08:10:24;;;;;;;4.50;1.25;;;;;;;19.93;91.71;101436.16;5084442;28;20430;-81
2022/06/12 08:12:58;;;;;;;5.68;1.50;;;;;;;19.89;95.16;101440.69;5080380;28;20438;-88
2022/06/12 08:15:29;;;;;;;6.07;1.60;;;;;;;20.00;90.75;101436.47;5096585;28;20430;-85
2022/06/12 08:17:57;;;;;;;4.90;1.30;;;;;;;20.22;83.71;101438.22;5086764;28;20795;-84
2022/06/12 08:20:28;;;;;;;7.15;1.40;;;;;;;20.38;90.95;101444.06;5087979;28;20431;-86
2022/06/12 08:23:06;;;;;;;6.03;1.33;;;;;;;19.95;89.52;101447.66;5091055;28;20426;-85
2022/06/12 08:25:39;;;;;;;6.22;1.33;;;;;;;20.14;87.88;101444.56;5091874;28;20432;-84
2022/06/12 08:28:12;;;;;;;6.85;1.55;;;;;;;20.20;80.42;101450.75;5098077;28;20422;-82
2022/06/12 08:30:47;;;;;;;6.43;1.67;;;;;;;20.33;82.85;101444.22;5084316;28;20780;-82
2022/06/12 08:33:21;;;;;;;4.63;1.20;;;;;;;20.55;80.22;101445.97;5080379;28;20780;-84
2022/06/12 08:35:51;;;;;;;4.37;1.37;;;;;;;20.17;79.53;101449.44;5079418;28;20419;-83
2022/06/12 08:38:24;;;;;;;4.47;1.30;;;;;;;20.39;83.63;101436.56;5092146;28;20893;-83
2022/06/12 08:41:01;;;;;;;4.50;1.33;;;;;;;20.52;78.09;101429.22;5084956;28;20902;-83
2022/06/12 08:43:39;;;;;;;5.88;1.42;;;;;;;20.75;91.08;101434.56;5086212;28;20434;-83
2022/06/12 08:46:21;;;;;;;5.90;1.40;;;;;;;20.72;75.75;101433.28;5095236;28;20940;-83
2022/06/12 08:48:58;;;;;;;6.60;1.40;;;;;;;20.58;80.11;101425.16;5090298;28;20418;-82
2022/06/12 08:51:43;;;;;;;5.80;1.30;;;;;;;20.76;86.86;101414.88;5090765;28;20416;-84
2022/06/12 08:54:16;;;;;;;4.57;1.38;;;;;;;20.74;82.12;101411.59;5091796;28;20425;-82
2022/06/12 08:56:55;;;;;;;6.45;1.30;;;;;;;20.55;70.83;101415.56;5084442;28;20422;-84
2022/06/12 08:59:35;;;;;;;5.95;1.40;;;;;;;20.66;71.50;101410.50;5081932;28;20426;-84
2022/06/12 09:02:18;;;;;;;5.82;1.30;;;;;;;20.66;77.10;101412.41;5082410;28;20426;-83
2022/06/12 09:04:58;;;;;;;7.10;1.30;;;;;;;20.75;71.25;101415.22;5088542;28;20914;-81
2022/06/12 09:07:39;;;;;;;6.65;1.42;;;;;;;20.52;66.72;101409.88;5075473;28;20433;-82
2022/06/12 09:10:24;;;;;;;6.15;1.20;;;;;;;20.90;77.40;101404.38;5080615;28;20435;-83
2022/06/12 09:13:09;;;;;;;4.63;1.20;;;;;;;20.87;81.37;101402.28;5086530;28;20447;-82
2022/06/12 09:15:48;;;;;;;4.45;1.05;;;;;;;21.10;74.41;101399.25;5084862;28;20433;-83
2022/06/12 09:18:34;;;;;;;4.90;1.30;;;;;;;21.17;78.51;101399.53;5089382;28;20429;-84
2022/06/12 09:21:08;;;;;;;4.63;1.10;;;;;;;21.14;65.69;101396.63;5087936;28;20432;-84
2022/06/12 09:23:44;;;;;;;5.30;1.20;;;;;;;20.95;65.93;101408.09;5091151;28;20779;-84
2022/06/12 09:26:23;;;;;;;3.67;1.08;;;;;;;21.02;65.47;101398.16;5089790;28;20422;-83
2022/06/12 09:29:04;;;;;;;5.35;1.30;;;;;;;21.28;72.99;101397.19;5084863;28;20767;-82
2022/06/12 09:31:50;;;;;;;5.53;1.20;;;;;;;21.06;68.74;101390.81;5090007;28;20918;-83
2022/06/12 09:34:33;;;;;;;5.22;1.17;;;;;;;21.09;63.88;101389.31;5088826;28;20399;-81
2022/06/12 09:40:09;;;;;;;6.22;1.20;;;;;;;21.12;62.12;101383.13;5091003;28;20413;-81
2022/06/12 09:42:57;;;;;;;5.05;1.20;;;;;;;21.21;64.89;101385.81;5082108;28;20427;-82
2022/06/12 09:45:42;;;;;;;6.13;1.40;;;;;;;21.46;77.08;101392.34;5092423;28;20483;-84
2022/06/12 09:48:22;;;;;;;4.95;1.33;;;;;;;21.51;64.03;101369.97;5054863;28;20425;-83
2022/06/12 09:51:09;;;;;;;3.78;1.10;;;;;;;21.61;65.63;101376.28;5069419;28;20447;-82
2022/06/12 09:53:53;;;;;;;4.25;1.17;;;;;;;21.82;64.00;101373.50;5059893;28;20418;-83
2022/06/12 09:56:32;;;;;;;3.45;1.02;;;;;;;21.62;62.04;101377.91;5058846;28;20427;-82
2022/06/12 09:59:16;;;;;;;4.38;1.00;;;;;;;21.64;53.56;101351.50;5073495;28;20415;-83
2022/06/12 10:01:55;;;;;;;4.90;1.60;;;;;;;22.11;59.75;101361.50;5061170;28;20418;-82
2022/06/12 10:04:37;;;;;;;4.23;1.20;;;;;;;22.24;53.84;101359.56;5067163;28;20422;-81
2022/06/12 10:07:17;;;;;;;4.03;1.10;;;;;;;22.07;51.39;101368.88;5054165;28;20417;-83
2022/06/12 10:09:50;;;;;;;3.50;1.08;;;;;;;22.20;52.42;101367.75;5053101;28;21050;-81
2022/06/12 10:12:25;;;;;;;6.13;1.50;;;;;;;21.28;52.81;101363.97;5052132;28;21263;-84
2022/06/12 10:15:06;;;;;;;3.90;1.00;;;;;;;21.42;57.75;101363.72;5062263;28;20796;-84
2022/06/12 10:17:46;;;;;;;4.75;1.00;;;;;;;21.54;54.76;101369.34;5057982;28;20972;-84
2022/06/12 10:20:20;;;;;;;5.32;1.00;;;;;;;21.96;56.59;101348.25;5083789;28;21843;-83
2022/06/12 10:22:57;;;;;;;3.88;1.08;;;;;;;21.69;50.81;101356.03;5062402;28;20797;-82
2022/06/12 10:25:34;;;;;;;2.85;0.85;;;;;;;21.29;56.58;101359.25;5053649;28;21146;-81
2022/06/12 10:28:21;;;;;;;2.70;1.00;;;;;;;20.85;62.06;101354.78;5066757;28;20411;-82
2022/06/12 10:31:04;;;;;;;2.17;0.83;;;;;;;20.71;58.32;101357.78;5053559;28;20418;-82
2022/06/12 10:33:50;;;;;;;3.50;1.08;;;;;;;20.72;54.54;101345.56;5053405;28;21892;-83
2022/06/12 10:36:24;;;;;;;2.33;0.75;;;;;;;21.20;61.08;101351.81;5049669;28;20435;-83
2022/06/12 10:39:07;;;;;;;4.63;1.20;;;;;;;21.22;54.24;101346.72;5071952;28;20432;-82
2022/06/12 10:41:44;;;;;;;5.20;1.00;;;;;;;21.33;57.14;101341.59;5050424;28;20439;-82
2022/06/12 10:44:29;;;;;;;4.88;1.20;;;;;;;21.32;60.18;101340.00;5048007;28;20424;-83
2022/06/12 10:47:17;;;;;;;3.65;0.98;;;;;;;21.27;58.18;101339.38;5051134;28;20430;-82
2022/06/12 10:50:15;;;;;;;4.95;1.08;;;;;;;21.21;59.07;101333.22;5059395;28;20456;-82
2022/06/12 10:52:54;;;;;;;3.45;0.90;;;;;;;21.67;57.19;101325.09;5053869;28;20466;-83
2022/06/12 10:55:41;;;;;;;2.38;0.90;;;;;;;21.89;58.19;101324.69;5054422;28;20434;-81
2022/06/12 10:58:31;;;;;;;4.50;1.10;;;;;;;21.80;62.13;101323.16;5057409;28;20443;-83
2022/06/12 11:01:13;;;;;;;3.27;1.07;;;;;;;22.38;59.82;101321.25;5054550;28;20938;-84
2022/06/12 11:03:56;;;;;;;3.53;0.90;;;;;;;22.59;50.63;101323.09;5056752;28;20425;-83
2022/06/12 11:06:37;;;;;;;5.95;1.10;;;;;;;22.50;62.00;101317.69;5054191;28;21312;-81
2022/06/12 11:09:22;;;;;;;3.30;0.90;;;;;;;22.62;52.89;101313.28;5048924;28;20428;-83
2022/06/12 11:12:13;;;;;;;3.03;1.10;;;;;;;22.62;55.88;101305.78;5064391;28;20919;-83
2022/06/12 11:14:55;;;;;;;3.60;1.00;;;;;;;22.59;53.37;101314.78;5060805;28;20429;-83
2022/06/12 11:17:38;;;;;;;2.70;1.00;;;;;;;22.13;48.29;101308.47;5051795;28;20425;-82
2022/06/12 11:20:23;;;;;;;3.88;1.00;;;;;;;21.43;52.40;101318.25;5052779;28;20427;-82
2022/06/12 11:23:04;;;;;;;4.35;1.02;;;;;;;21.12;62.93;101315.91;5056620;28;20733;-82
2022/06/12 11:25:48;;;;;;;2.90;0.90;;;;;;;20.92;58.47;101323.00;5063352;28;20426;-80
2022/06/12 11:28:28;;;;;;;4.50;1.05;;;;;;;21.78;60.10;101308.84;5054484;28;20421;-82
2022/06/12 11:31:13;;;;;;;2.85;1.00;;;;;;;21.32;52.59;101308.72;5057824;28;21072;-81
2022/06/12 11:34:00;;;;;;;3.92;1.00;;;;;;;22.07;52.64;101302.34;5063947;28;20788;-81
2022/06/12 11:36:45;;;;;;;3.25;0.90;;;;;;;22.17;53.43;101304.66;5051043;28;20424;-80
2022/06/12 11:39:35;;;;;;;3.53;1.00;;;;;;;22.58;50.51;101293.78;5055160;28;21281;-81
2022/06/12 11:42:15;;;;;;;3.85;0.90;;;;;;;22.21;48.25;101302.81;5052228;28;20455;-80
2022/06/12 11:45:14;;;;;;;3.22;0.95;;;;;;;22.02;58.46;101289.50;5056339;28;20456;-82
2022/06/12 11:48:07;;;;;;;4.03;1.10;;;;;;;21.61;53.93;101291.22;5061287;28;20419;-82
2022/06/12 11:50:50;;;;;;;3.38;1.00;;;;;;;21.22;51.85;101293.34;5048718;28;20423;-81
2022/06/12 11:53:36;;;;;;;4.55;1.10;;;;;;;21.44;54.11;101278.34;5052922;28;20433;-81
2022/06/12 11:56:18;;;;;;;5.85;1.02;;;;;;;22.32;65.45;101281.00;5052253;28;20426;-81
2022/06/12 11:59:00;;;;;;;2.60;0.80;;;;;;;22.46;49.92;101277.13;5048563;28;20514;-81
2022/06/12 12:01:41;;;;;;;2.70;0.90;;;;;;;23.18;57.75;101277.38;5050231;28;20426;-80
2022/06/12 12:04:54;;;;;;;3.57;0.90;;;;;;;22.44;48.20;101280.22;5050144;28;20424;-82
2022/06/12 12:07:48;;;;;;;3.95;1.00;;;;;;;23.27;53.53;101266.94;5048494;28;20434;-81
2022/06/12 12:10:33;;;;;;;4.22;0.90;;;;;;;23.38;43.98;101261.69;5054089;28;20435;-80
2022/06/12 12:13:12;;;;;;;2.60;0.85;;;;;;;23.24;41.67;101258.50;5070488;28;20435;-81
2022/06/12 12:15:49;;;;;;;3.45;1.00;;;;;;;23.13;42.73;101255.41;5052573;28;20942;-79
2022/06/12 12:18:34;;;;;;;4.03;1.05;;;;;;;23.23;48.49;101249.38;5047204;28;20443;-82
2022/06/12 12:21:13;;;;;;;5.22;1.95;;;;;;;23.55;45.84;101240.34;5050680;28;20434;-82
2022/06/12 12:23:49;;;;;;;2.73;0.93;;;;;;;23.74;50.64;101242.44;5059929;28;20435;-80